createdAt,value
2018-07-28T00:01:24.397Z,5.40
2018-07-28T00:03:52.118Z,5.23
2018-07-28T00:06:19.801Z,5.67
2018-07-28T00:08:47.474Z,5.90
2018-07-28T00:11:15.182Z,5.53
2018-07-28T00:13:43.066Z,5.77
2018-07-28T00:16:10.725Z,5.30
2018-07-28T00:18:38.439Z,4.77
2018-07-28T00:21:06.121Z,5.00
2018-07-28T00:23:33.794Z,5.57
2018-07-28T00:26:07.195Z,5.43
2018-07-28T00:28:34.990Z,5.73
2018-07-28T00:31:02.689Z,5.30
2018-07-28T00:33:30.420Z,5.00
2018-07-28T00:35:58.049Z,5.00
2018-07-28T00:38:25.770Z,4.97
2018-07-28T00:40:53.510Z,5.10
2018-07-28T00:43:21.198Z,4.80
2018-07-28T00:45:48.849Z,4.70
2018-07-28T00:48:16.494Z,4.57
2018-07-28T00:50:44.180Z,4.67
2018-07-28T00:53:11.890Z,5.10
2018-07-28T00:55:39.634Z,5.27
2018-07-28T00:58:07.593Z,4.67
2018-07-28T01:00:35.341Z,5.30
2018-07-28T01:03:03.169Z,5.40
2018-07-28T01:05:31.022Z,4.87
2018-07-28T01:07:58.698Z,5.57
2018-07-28T01:10:36.029Z,5.30
2018-07-28T01:13:03.717Z,5.70
2018-07-28T01:15:31.382Z,4.87
2018-07-28T01:17:59.246Z,5.60
2018-07-28T01:20:26.951Z,5.33
2018-07-28T01:22:54.609Z,5.27
2018-07-28T01:25:22.370Z,4.77
2018-07-28T01:27:50.038Z,5.00
2018-07-28T01:30:22.674Z,4.93
2018-07-28T01:32:50.316Z,5.67
2018-07-28T01:35:17.997Z,5.27
2018-07-28T01:37:45.901Z,5.73
2018-07-28T01:40:13.587Z,5.30
2018-07-28T01:42:41.270Z,5.87
2018-07-28T01:45:09.254Z,6.20
2018-07-28T01:47:36.964Z,6.13
2018-07-28T01:50:06.523Z,6.03
2018-07-28T01:52:34.333Z,5.57
2018-07-28T01:55:02.049Z,5.80
2018-07-28T01:57:29.820Z,5.20
2018-07-28T01:59:57.444Z,5.20
2018-07-28T02:02:25.120Z,4.73
2018-07-28T02:04:52.689Z,5.53
2018-07-28T02:07:20.289Z,5.80
2018-07-28T02:09:47.907Z,5.57
2018-07-28T02:15:13.209Z,5.80
2018-07-28T02:17:40.858Z,5.80
2018-07-28T02:20:08.684Z,6.73
2018-07-28T02:22:36.388Z,6.10
2018-07-28T02:25:06.982Z,6.77
2018-07-28T02:27:34.585Z,6.43
2018-07-28T02:30:02.229Z,5.67
2018-07-28T02:32:29.892Z,6.43
2018-07-28T02:34:57.604Z,5.30
2018-07-28T02:37:25.224Z,5.93
2018-07-28T02:39:52.838Z,5.63
2018-07-28T02:42:20.508Z,5.60
2018-07-28T02:44:48.139Z,5.50
2018-07-28T02:47:15.790Z,6.30
2018-07-28T02:49:43.479Z,6.03
2018-07-28T02:52:11.090Z,5.67
2018-07-28T02:54:38.797Z,5.73
2018-07-28T02:57:06.443Z,5.77
2018-07-28T02:59:34.073Z,5.70
2018-07-28T03:02:01.821Z,6.10
2018-07-28T03:04:29.493Z,5.40
2018-07-28T03:06:57.114Z,5.60
2018-07-28T03:09:24.737Z,5.33
2018-07-28T03:11:52.378Z,5.63
2018-07-28T03:14:20.112Z,5.13
2018-07-28T03:16:47.693Z,5.43
2018-07-28T03:19:15.405Z,5.10
2018-07-28T03:21:42.999Z,5.13
2018-07-28T03:24:10.623Z,5.43
2018-07-28T03:26:38.205Z,6.10
2018-07-28T03:29:05.904Z,5.90
2018-07-28T03:31:33.609Z,5.57
2018-07-28T03:34:01.241Z,5.60
2018-07-28T03:36:28.905Z,4.63
2018-07-28T03:38:56.567Z,5.27
2018-07-28T03:41:24.240Z,5.80
2018-07-28T03:43:51.825Z,4.90
2018-07-28T03:46:19.615Z,5.63
2018-07-28T03:48:47.277Z,6.00
2018-07-28T03:51:14.913Z,5.67
2018-07-28T03:53:42.564Z,5.77
2018-07-28T03:56:10.285Z,5.33
2018-07-28T03:58:37.877Z,5.70
2018-07-28T04:01:05.662Z,6.17
2018-07-28T04:03:33.425Z,5.60
2018-07-28T04:06:01.193Z,5.87
2018-07-28T04:08:28.804Z,6.37
2018-07-28T04:10:56.640Z,5.60
2018-07-28T04:13:24.660Z,6.50
2018-07-28T04:15:52.252Z,6.10
2018-07-28T04:18:19.886Z,5.70
2018-07-28T04:20:47.652Z,7.13
2018-07-28T04:23:15.308Z,5.43
2018-07-28T04:25:42.976Z,5.73
2018-07-28T04:28:10.561Z,5.93
2018-07-28T04:30:38.381Z,6.43
2018-07-28T04:33:05.989Z,5.83
2018-07-28T04:35:33.573Z,6.07
2018-07-28T04:38:01.177Z,6.27
2018-07-28T04:40:28.815Z,5.53
2018-07-28T04:42:56.412Z,6.63
2018-07-28T04:45:24.008Z,5.70
2018-07-28T04:47:51.590Z,6.10
2018-07-28T04:50:19.185Z,5.93
2018-07-28T04:52:46.772Z,5.50
2018-07-28T04:55:14.378Z,5.47
2018-07-28T04:57:41.965Z,4.87
2018-07-28T05:00:09.613Z,4.80
2018-07-28T05:02:37.190Z,5.57
2018-07-28T05:05:04.822Z,5.70
2018-07-28T05:07:32.484Z,5.80
2018-07-28T05:10:00.043Z,5.97
2018-07-28T05:12:27.689Z,6.07
2018-07-28T05:14:55.439Z,6.17
2018-07-28T05:17:23.100Z,5.60
2018-07-28T05:19:50.717Z,5.97
2018-07-28T05:22:18.433Z,5.27
2018-07-28T05:24:46.141Z,5.67
2018-07-28T05:27:13.856Z,5.10
2018-07-28T05:29:41.605Z,5.50
2018-07-28T05:32:09.113Z,5.80
2018-07-28T05:34:36.741Z,5.90
2018-07-28T05:37:04.639Z,6.67
2018-07-28T05:39:32.202Z,5.73
2018-07-28T05:41:59.822Z,5.50
2018-07-28T05:44:27.421Z,5.53
2018-07-28T05:46:55.046Z,6.50
2018-07-28T05:49:22.745Z,5.30
2018-07-28T05:51:50.368Z,5.10
2018-07-28T05:54:18.098Z,5.37
2018-07-28T05:56:45.685Z,5.23
2018-07-28T05:59:13.378Z,5.50
2018-07-28T06:01:40.982Z,5.90
2018-07-28T06:04:08.640Z,5.70
2018-07-28T06:06:36.378Z,5.10
2018-07-28T06:09:06.782Z,6.40
2018-07-28T06:11:34.722Z,5.30
2018-07-28T06:14:02.588Z,5.87
2018-07-28T06:16:30.158Z,5.97
2018-07-28T06:18:57.845Z,6.23
2018-07-28T06:21:25.508Z,5.60
2018-07-28T06:23:53.109Z,5.40
2018-07-28T06:26:20.731Z,5.77
2018-07-28T06:28:48.409Z,6.30
2018-07-28T06:31:16.051Z,6.07
2018-07-28T06:33:43.701Z,5.73
2018-07-28T06:36:11.308Z,6.00
2018-07-28T06:38:39.020Z,5.80
2018-07-28T06:41:06.738Z,5.40
2018-07-28T06:43:34.357Z,6.07
2018-07-28T06:46:02.119Z,5.50
2018-07-28T06:48:29.701Z,6.17
2018-07-28T06:50:57.388Z,6.20
2018-07-28T06:53:25.026Z,5.23
2018-07-28T06:55:52.664Z,5.50
2018-07-28T06:58:20.576Z,5.57
2018-07-28T07:03:22.600Z,5.17
2018-07-28T07:05:50.297Z,5.10
2018-07-28T07:08:17.889Z,5.10
2018-07-28T07:10:45.568Z,4.93
2018-07-28T07:13:13.376Z,4.60
2018-07-28T07:15:41.189Z,5.20
2018-07-28T07:18:08.809Z,4.60
2018-07-28T07:20:36.474Z,4.53
2018-07-28T07:23:04.165Z,5.10
2018-07-28T07:25:31.786Z,4.30
2018-07-28T07:27:59.451Z,4.30
2018-07-28T07:30:27.116Z,4.60
2018-07-28T07:32:54.822Z,4.70
2018-07-28T07:35:22.729Z,4.87
2018-07-28T07:37:50.569Z,4.37
2018-07-28T07:40:18.170Z,4.73
2018-07-28T07:42:45.845Z,4.77
2018-07-28T07:45:13.445Z,4.83
2018-07-28T07:47:41.142Z,5.20
2018-07-28T07:50:08.665Z,5.17
2018-07-28T07:52:36.277Z,5.00
2018-07-28T07:55:04.009Z,4.77
2018-07-28T07:57:31.709Z,5.73
2018-07-28T07:59:59.304Z,5.50
2018-07-28T08:02:26.990Z,5.70
2018-07-28T08:04:54.723Z,5.00
2018-07-28T08:07:22.328Z,4.47
2018-07-28T08:09:50.093Z,6.00
2018-07-28T08:12:17.740Z,4.60
2018-07-28T08:14:45.349Z,5.17
2018-07-28T08:17:13.022Z,4.83
2018-07-28T08:19:40.657Z,4.80
2018-07-28T08:22:08.342Z,4.83
2018-07-28T08:24:35.985Z,4.40
2018-07-28T08:27:03.694Z,5.10
2018-07-28T08:29:31.336Z,5.13
2018-07-28T08:31:58.977Z,5.10
2018-07-28T08:34:26.640Z,5.67
2018-07-28T08:36:54.246Z,4.17
2018-07-28T08:39:21.961Z,4.67
2018-07-28T08:41:49.611Z,5.50
2018-07-28T08:44:17.198Z,5.17
2018-07-28T08:46:44.966Z,4.90
2018-07-28T08:49:12.677Z,4.23
2018-07-28T08:51:40.566Z,4.07
2018-07-28T08:54:08.281Z,3.87
2018-07-28T08:56:35.945Z,4.33
2018-07-28T08:59:03.682Z,4.13
2018-07-28T09:01:31.369Z,4.40
2018-07-28T09:03:58.965Z,3.80
2018-07-28T09:06:26.805Z,3.97
2018-07-28T09:08:54.429Z,4.30
2018-07-28T09:11:22.381Z,3.93
2018-07-28T09:13:50.125Z,3.50
2018-07-28T09:16:17.725Z,4.27
2018-07-28T09:18:45.406Z,4.50
2018-07-28T09:21:13.650Z,4.43
2018-07-28T09:23:41.342Z,4.63
2018-07-28T09:26:08.924Z,4.30
2018-07-28T09:28:36.517Z,4.80
2018-07-28T09:31:04.354Z,4.90
2018-07-28T09:33:31.972Z,5.17
2018-07-28T09:35:59.805Z,4.03
2018-07-28T09:38:27.546Z,4.57
2018-07-28T09:40:55.248Z,4.80
2018-07-28T09:43:23.096Z,4.87
2018-07-28T09:45:50.707Z,4.67
2018-07-28T09:48:18.322Z,4.30
2018-07-28T09:50:45.982Z,4.50
2018-07-28T09:53:13.624Z,4.30
2018-07-28T09:55:41.303Z,4.47
2018-07-28T09:58:08.897Z,4.43
2018-07-28T10:00:42.181Z,4.00
2018-07-28T10:03:09.889Z,3.90
2018-07-28T10:05:37.669Z,4.33
2018-07-28T10:08:05.370Z,4.10
2018-07-28T10:10:36.940Z,4.10
2018-07-28T10:13:04.645Z,4.57
2018-07-28T10:15:32.249Z,4.30
2018-07-28T10:17:59.930Z,4.50
2018-07-28T10:20:27.541Z,4.00
2018-07-28T10:22:55.228Z,4.17
2018-07-28T10:25:22.746Z,4.43
2018-07-28T10:27:50.395Z,4.03
2018-07-28T10:30:18.082Z,4.10
2018-07-28T10:32:45.593Z,3.90
2018-07-28T10:35:13.319Z,4.60
2018-07-28T10:37:40.917Z,4.67
2018-07-28T10:40:09.274Z,3.80
2018-07-28T10:42:37.293Z,4.37
2018-07-28T10:45:05.089Z,4.43
2018-07-28T10:47:32.718Z,5.00
2018-07-28T10:50:00.383Z,4.47
2018-07-28T10:52:28.085Z,4.00
2018-07-28T10:54:55.710Z,4.70
2018-07-28T10:57:24.244Z,4.63
2018-07-28T10:59:52.578Z,4.13
2018-07-28T11:02:20.597Z,4.23
2018-07-28T11:04:48.233Z,4.40
2018-07-28T11:07:16.009Z,3.77
2018-07-28T11:09:44.013Z,4.53
2018-07-28T11:12:11.673Z,4.90
2018-07-28T11:14:39.414Z,4.40
2018-07-28T11:17:07.053Z,4.80
2018-07-28T11:19:34.948Z,4.47
2018-07-28T11:22:02.589Z,4.00
2018-07-28T11:24:30.198Z,4.57
2018-07-28T11:26:57.865Z,4.17
2018-07-28T11:29:25.817Z,4.30
2018-07-28T11:32:11.136Z,4.27
2018-07-28T11:34:56.177Z,4.43
2018-07-28T11:38:01.117Z,4.00
2018-07-28T11:40:41.336Z,3.90
2018-07-28T11:43:26.237Z,4.13
2018-07-28T11:45:54.159Z,4.17
2018-07-28T11:48:21.729Z,4.20
2018-07-28T11:50:49.442Z,4.53
2018-07-28T11:53:17.054Z,4.30
2018-07-28T11:55:44.717Z,4.30
2018-07-28T11:58:12.317Z,4.23
2018-07-28T12:00:39.922Z,4.70
2018-07-28T12:03:07.595Z,4.37
2018-07-28T12:05:35.262Z,4.37
2018-07-28T12:08:02.998Z,4.50
2018-07-28T12:10:36.890Z,4.80
2018-07-28T12:13:04.641Z,4.30
2018-07-28T12:15:32.337Z,4.90
2018-07-28T12:18:00.017Z,4.70
2018-07-28T12:20:27.652Z,4.60
2018-07-28T12:22:55.302Z,4.87
2018-07-28T12:25:22.938Z,5.13
2018-07-28T12:27:50.649Z,4.50
2018-07-28T12:30:18.290Z,4.40
2018-07-28T12:32:45.905Z,4.83
2018-07-28T12:35:13.565Z,4.20
2018-07-28T12:37:41.298Z,4.43
2018-07-28T12:40:08.982Z,4.87
2018-07-28T12:42:36.672Z,4.20
2018-07-28T12:45:04.753Z,4.80
2018-07-28T12:47:32.377Z,4.37
2018-07-28T12:50:00.057Z,4.50
2018-07-28T12:52:27.689Z,5.77
2018-07-28T12:54:57.706Z,4.67
2018-07-28T12:57:25.553Z,4.53
2018-07-28T12:59:55.993Z,4.53
2018-07-28T13:02:23.619Z,4.43
2018-07-28T13:04:51.339Z,4.77
2018-07-28T13:07:18.965Z,5.53
2018-07-28T13:09:46.607Z,5.20
2018-07-28T13:12:14.463Z,5.40
2018-07-28T13:14:42.139Z,5.60
2018-07-28T13:17:09.777Z,5.50
2018-07-28T13:19:37.434Z,5.47
2018-07-28T13:22:05.293Z,5.47
2018-07-28T13:24:33.003Z,5.83
2018-07-28T13:27:00.624Z,5.53
2018-07-28T13:29:28.248Z,4.90
2018-07-28T13:31:55.893Z,5.23
2018-07-28T13:34:23.618Z,6.03
2018-07-28T13:36:51.274Z,6.53
2018-07-28T13:39:19.173Z,5.90
2018-07-28T13:41:46.889Z,6.30
2018-07-28T13:44:14.494Z,6.10
2018-07-28T13:46:42.113Z,5.97
2018-07-28T13:49:09.721Z,5.67
2018-07-28T13:51:37.329Z,5.70
2018-07-28T13:54:04.993Z,5.77
2018-07-28T13:56:32.638Z,4.97
2018-07-28T13:59:00.272Z,5.87
2018-07-28T14:01:27.873Z,5.77
2018-07-28T14:03:55.498Z,6.00
2018-07-28T14:06:23.165Z,5.17
2018-07-28T14:08:50.770Z,5.63
2018-07-28T14:11:18.533Z,5.17
2018-07-28T14:13:48.805Z,5.73
2018-07-28T14:16:16.522Z,5.33
2018-07-28T14:18:44.241Z,5.40
2018-07-28T14:21:11.843Z,5.57
2018-07-28T14:23:39.495Z,5.17
2018-07-28T14:26:07.149Z,5.23
2018-07-28T14:28:34.883Z,5.70
2018-07-28T14:31:02.550Z,6.60
2018-07-28T14:33:30.213Z,5.90
2018-07-28T14:35:57.853Z,5.20
2018-07-28T14:38:25.477Z,5.40
2018-07-28T14:40:53.221Z,5.23
2018-07-28T14:43:20.873Z,5.57
2018-07-28T14:45:48.514Z,5.33
2018-07-28T14:48:16.141Z,5.37
2018-07-28T14:50:43.760Z,4.87
2018-07-28T14:53:11.384Z,4.53
2018-07-28T14:55:39.117Z,5.83
2018-07-28T14:58:06.754Z,5.30
2018-07-28T15:00:34.378Z,5.80
2018-07-28T15:03:02.007Z,5.50
2018-07-28T15:05:29.639Z,5.27
2018-07-28T15:07:57.270Z,5.60
2018-07-28T15:10:36.245Z,5.87
2018-07-28T15:13:03.885Z,5.97
2018-07-28T15:15:31.501Z,5.53
2018-07-28T15:17:59.218Z,5.87
2018-07-28T15:20:26.834Z,5.57
2018-07-28T15:22:54.477Z,6.43
2018-07-28T15:25:22.121Z,6.27
2018-07-28T15:27:49.746Z,5.80
2018-07-28T15:30:17.425Z,5.90
2018-07-28T15:32:45.049Z,6.00
2018-07-28T15:35:12.673Z,5.33
2018-07-28T15:37:40.293Z,6.50
2018-07-28T15:40:07.961Z,6.23
2018-07-28T15:42:35.598Z,5.80
2018-07-28T15:45:03.474Z,5.97
2018-07-28T15:47:31.102Z,7.07
2018-07-28T15:49:58.709Z,7.00
2018-07-28T15:52:26.333Z,6.43
2018-07-28T15:54:53.947Z,5.80
2018-07-28T15:57:21.624Z,7.43
2018-07-28T15:59:49.249Z,5.87
2018-07-28T16:02:16.859Z,6.23
2018-07-28T16:04:44.478Z,6.10
2018-07-28T16:07:12.105Z,5.40
2018-07-28T16:09:39.854Z,5.67
2018-07-28T16:12:07.517Z,5.33
2018-07-28T16:14:35.137Z,5.30
2018-07-28T16:17:02.769Z,6.73
2018-07-28T16:19:30.400Z,5.67
2018-07-28T16:21:58.009Z,5.50
2018-07-28T16:24:25.633Z,5.67
2018-07-28T16:26:53.270Z,6.03
2018-07-28T16:29:20.901Z,5.40
2018-07-28T16:31:48.587Z,5.23
2018-07-28T16:34:16.188Z,5.67
2018-07-28T16:36:43.821Z,6.17
2018-07-28T16:39:11.505Z,5.67
2018-07-28T16:41:39.159Z,5.20
2018-07-28T16:44:06.900Z,5.40
2018-07-28T16:46:34.555Z,5.63
2018-07-28T16:49:02.127Z,5.30
2018-07-28T16:51:29.733Z,5.60
2018-07-28T16:53:57.361Z,4.97
2018-07-28T16:56:25.002Z,5.43
2018-07-28T16:58:52.675Z,5.47
2018-07-28T17:01:20.247Z,5.60
2018-07-28T17:03:47.936Z,5.30
2018-07-28T17:06:15.581Z,5.73
2018-07-28T17:08:43.173Z,5.33
2018-07-28T17:11:11.102Z,5.43
2018-07-28T17:13:38.787Z,5.00
2018-07-28T17:16:06.417Z,6.00
2018-07-28T17:18:34.037Z,5.17
2018-07-28T17:21:01.626Z,5.20
2018-07-28T17:23:29.233Z,5.07
2018-07-28T17:25:56.894Z,5.27
2018-07-28T17:28:24.505Z,5.57
2018-07-28T17:30:52.152Z,5.67
2018-07-28T17:33:19.741Z,5.23
2018-07-28T17:35:47.345Z,5.97
2018-07-28T17:38:14.983Z,5.60
2018-07-28T17:40:42.599Z,5.67
2018-07-28T17:43:10.245Z,5.17
2018-07-28T17:45:37.897Z,5.73
2018-07-28T17:48:05.528Z,5.87
2018-07-28T17:50:33.433Z,5.10
2018-07-28T17:53:01.046Z,5.40
2018-07-28T17:55:28.731Z,5.80
2018-07-28T17:57:56.439Z,5.73
2018-07-28T18:00:24.118Z,5.90
2018-07-28T18:02:52.059Z,5.53
2018-07-28T18:05:19.762Z,5.73
2018-07-28T18:07:47.766Z,5.80
2018-07-28T18:10:15.686Z,5.77
2018-07-28T18:12:43.362Z,5.87
2018-07-28T18:15:11.060Z,5.40
2018-07-28T18:17:38.694Z,4.83
2018-07-28T18:20:06.570Z,5.53
2018-07-28T18:22:34.199Z,5.20
2018-07-28T18:25:01.966Z,6.20
2018-07-28T18:27:29.715Z,5.97
2018-07-28T18:29:57.367Z,5.50
2018-07-28T18:32:25.042Z,4.93
2018-07-28T18:34:52.934Z,5.33
2018-07-28T18:37:20.978Z,4.97
2018-07-28T18:39:48.798Z,5.10
2018-07-28T18:42:16.450Z,6.00
2018-07-28T18:44:44.184Z,5.50
2018-07-28T18:47:12.107Z,5.03
2018-07-28T18:49:39.807Z,5.33
2018-07-28T18:52:07.978Z,5.03
2018-07-28T18:54:35.660Z,4.67
2018-07-28T18:57:03.694Z,4.87
2018-07-28T18:59:31.368Z,4.77
2018-07-28T19:01:59.038Z,4.97
2018-07-28T19:04:26.818Z,5.13
2018-07-28T19:06:54.490Z,5.00
2018-07-28T19:09:27.907Z,4.63
2018-07-28T19:11:55.669Z,5.20
2018-07-28T19:14:29.039Z,5.77
2018-07-28T19:16:57.150Z,5.33
2018-07-28T19:19:24.932Z,5.27
2018-07-28T19:21:52.590Z,5.93
2018-07-28T19:24:20.327Z,5.53
2018-07-28T19:26:47.974Z,5.50
2018-07-28T19:29:21.438Z,5.37
2018-07-28T19:31:49.223Z,5.60
2018-07-28T19:34:23.518Z,4.83
2018-07-28T19:36:56.834Z,6.40
2018-07-28T19:39:24.523Z,9.37
2018-07-28T19:41:57.890Z,6.80
2018-07-28T19:44:25.711Z,6.43
2018-07-28T19:46:53.231Z,6.37
2018-07-28T19:49:20.871Z,5.60
2018-07-28T19:51:48.631Z,5.73
2018-07-28T19:54:16.343Z,5.53
2018-07-28T19:56:43.958Z,5.87
2018-07-28T19:59:11.670Z,5.83
2018-07-28T20:01:39.363Z,5.50
2018-07-28T20:04:06.998Z,5.67
2018-07-28T20:06:34.696Z,5.47
2018-07-28T20:09:02.526Z,5.10
2018-07-28T20:11:30.278Z,6.37
2018-07-28T20:13:58.014Z,7.43
2018-07-28T20:16:25.734Z,6.87
2018-07-28T20:18:53.783Z,6.10
2018-07-28T20:21:21.606Z,6.43
2018-07-28T20:23:49.977Z,5.63
2018-07-28T20:26:17.628Z,5.80
2018-07-28T20:28:45.331Z,6.33
2018-07-28T20:31:13.104Z,6.60
2018-07-28T20:33:40.842Z,6.20
2018-07-28T20:36:08.540Z,6.00
2018-07-28T20:38:36.250Z,6.27
2018-07-28T20:41:03.958Z,6.73
2018-07-28T20:43:31.678Z,6.60
2018-07-28T20:45:59.341Z,8.33
2018-07-28T20:48:27.067Z,6.77
2018-07-28T20:50:54.863Z,6.70
2018-07-28T20:53:22.677Z,6.37
2018-07-28T20:55:50.434Z,7.10
2018-07-28T20:58:18.938Z,6.57
2018-07-28T21:00:46.686Z,6.37
2018-07-28T21:03:14.459Z,5.97
2018-07-28T21:05:42.166Z,5.80
2018-07-28T21:08:09.930Z,6.73
2018-07-28T21:10:37.723Z,6.07
2018-07-28T21:13:05.784Z,6.07
2018-07-28T21:15:33.751Z,6.00
2018-07-28T21:18:01.460Z,6.03
2018-07-28T21:20:29.235Z,6.20
2018-07-28T21:22:56.866Z,5.97
2018-07-28T21:25:24.547Z,6.70
2018-07-28T21:27:52.728Z,6.70
2018-07-28T21:30:20.474Z,6.60
2018-07-28T21:32:48.387Z,5.50
2018-07-28T21:35:16.167Z,5.67
2018-07-28T21:37:43.831Z,6.30
2018-07-28T21:40:11.578Z,6.57
2018-07-28T21:42:39.460Z,5.83
2018-07-28T21:45:07.240Z,5.97
2018-07-28T21:47:34.915Z,6.10
2018-07-28T21:50:02.714Z,6.27
2018-07-28T21:52:30.485Z,6.00
2018-07-28T21:54:58.134Z,5.83
2018-07-28T21:57:25.903Z,5.90
2018-07-28T21:59:53.601Z,5.40
2018-07-28T22:02:21.346Z,5.40
2018-07-28T22:04:49.289Z,6.47
2018-07-28T22:07:16.961Z,5.20
2018-07-28T22:09:44.611Z,5.60
2018-07-28T22:12:12.371Z,5.77
2018-07-28T22:14:40.060Z,5.83
2018-07-28T22:17:07.844Z,5.37
2018-07-28T22:19:35.502Z,5.73
2018-07-28T22:22:03.390Z,6.03
2018-07-28T22:24:31.044Z,6.03
2018-07-28T22:26:58.793Z,5.70
2018-07-28T22:29:26.647Z,5.53
2018-07-28T22:31:54.431Z,5.33
2018-07-28T22:34:22.154Z,5.33
2018-07-28T22:36:49.908Z,5.67
2018-07-28T22:39:17.536Z,5.20
2018-07-28T22:41:45.276Z,5.67
2018-07-28T22:44:13.014Z,6.00
2018-07-28T22:46:40.793Z,5.47
2018-07-28T22:49:08.555Z,6.17
2018-07-28T22:51:36.215Z,5.37
2018-07-28T22:54:04.198Z,6.13
2018-07-28T22:56:31.946Z,5.97
2018-07-28T22:58:59.595Z,5.17
2018-07-28T23:01:27.250Z,5.87
2018-07-28T23:03:54.910Z,6.03
2018-07-28T23:06:22.542Z,5.43
2018-07-28T23:08:50.187Z,5.80
2018-07-28T23:11:17.848Z,5.43
2018-07-28T23:13:45.478Z,5.30
2018-07-28T23:16:13.147Z,5.40
2018-07-28T23:18:40.782Z,6.33
2018-07-28T23:21:08.435Z,5.70
2018-07-28T23:23:36.084Z,6.10
2018-07-28T23:26:03.860Z,6.57
2018-07-28T23:28:31.530Z,6.30
2018-07-28T23:30:59.186Z,6.47
2018-07-28T23:33:26.825Z,6.30
2018-07-28T23:35:54.494Z,6.63
2018-07-28T23:38:22.186Z,6.10
2018-07-28T23:40:49.834Z,6.30
2018-07-28T23:43:17.542Z,5.80
2018-07-28T23:45:45.213Z,6.60
2018-07-28T23:48:12.843Z,6.63
2018-07-28T23:50:40.502Z,6.03
2018-07-28T23:53:08.234Z,5.90
2018-07-28T23:55:35.886Z,6.57
2018-07-28T23:58:03.549Z,5.90
